Time;durP1;ratioP1;P1;durP2;ratioP2;P2;SDS_P1;SDS_P2;PMS_P1;PMS_P2;Temp;Humidity;BMP_temperature;BMP_pressure;BME280_temperature;BME280_humidity;BME280_pressure;Samples;Min_cycle;Max_cycle;Signal;HPM_P1;HPM_P2
2022/10/10 00:00:53;;;;;;;25.00;16.50;;;;;;;3.04;85.28;101648.17;86036;1294;95178;-65
2022/10/10 00:03:12;;;;;;;25.60;17.50;;;;;;;3.03;85.34;101642.23;86081;1291;81308;-66
2022/10/10 00:05:22;;;;;;;25.90;17.30;;;;;;;3.00;85.31;101640.09;86057;1290;80048;-62
2022/10/10 00:07:31;;;;;;;26.20;17.10;;;;;;;2.98;85.36;101640.56;86125;1290;96717;-62
2022/10/10 00:09:41;;;;;;;24.90;16.80;;;;;;;2.96;85.32;101648.69;86105;1291;87572;-62
2022/10/10 00:11:49;;;;;;;28.80;17.80;;;;;;;2.94;85.38;101648.55;86128;1291;94828;-63
2022/10/10 00:13:59;;;;;;;25.20;17.10;;;;;;;2.92;85.35;101647.61;86066;1291;80670;-63
2022/10/10 00:16:11;;;;;;;24.70;17.50;;;;;;;2.92;85.38;101650.06;86122;1298;81756;-65
2022/10/10 00:18:20;;;;;;;22.70;17.20;;;;;;;2.92;85.31;101649.02;85984;1293;101670;-65
2022/10/10 00:20:29;;;;;;;24.60;16.60;;;;;;;2.89;85.37;101645.99;86137;1291;89273;-63
2022/10/10 00:22:38;;;;;;;24.80;15.60;;;;;;;2.88;85.48;101643.23;86188;1291;95728;-64
2022/10/10 00:24:46;;;;;;;23.80;16.70;;;;;;;2.90;85.45;101640.64;86184;1292;81474;-64
2022/10/10 00:26:55;;;;;;;27.10;16.60;;;;;;;2.89;85.64;101638.54;86169;1289;81274;-65
2022/10/10 00:29:04;;;;;;;24.00;15.90;;;;;;;2.88;85.37;101643.25;86135;1292;99386;-65
2022/10/10 00:31:13;;;;;;;22.20;16.50;;;;;;;2.87;85.52;101637.98;86181;1291;86549;-63
2022/10/10 00:33:22;;;;;;;28.70;17.60;;;;;;;2.84;85.47;101635.59;86184;1291;95082;-63
2022/10/10 00:35:32;;;;;;;22.60;16.20;;;;;;;2.81;85.40;101643.40;86093;1297;80340;-65
2022/10/10 00:37:41;;;;;;;23.90;15.80;;;;;;;2.80;85.42;101642.73;86089;1295;82882;-66
2022/10/10 00:39:50;;;;;;;22.80;16.50;;;;;;;2.77;85.39;101641.73;86130;1291;97549;-63
2022/10/10 00:41:59;;;;;;;24.50;15.90;;;;;;;2.75;85.41;101639.91;86105;1291;86274;-62
2022/10/10 00:44:12;;;;;;;25.70;16.50;;;;;;;2.76;85.27;101639.48;85974;1290;95376;-62
2022/10/10 00:46:20;;;;;;;23.60;15.90;;;;;;;2.74;85.45;101640.19;86114;1292;80793;-65
2022/10/10 00:48:34;;;;;;;24.20;16.50;;;;;;;2.73;85.45;101640.59;86127;1298;83315;-65
2022/10/10 00:50:48;;;;;;;22.40;15.60;;;;;;;2.75;85.63;101639.38;86014;1297;97771;-65
2022/10/10 00:52:58;;;;;;;25.40;15.50;;;;;;;2.77;85.83;101641.36;86026;1294;87420;-70
2022/10/10 00:55:11;;;;;;;22.10;15.60;;;;;;;2.79;85.94;101637.17;86111;1297;95990;-63
2022/10/10 00:57:20;;;;;;;23.10;15.60;;;;;;;2.79;85.75;101632.50;86121;1292;79464;-63
2022/10/10 00:59:34;;;;;;;21.70;15.00;;;;;;;2.76;85.65;101630.23;85847;1291;290644;-63
2022/10/10 01:01:45;;;;;;;22.90;15.20;;;;;;;2.71;85.66;101634.00;86122;1297;98182;-63
2022/10/10 01:03:57;;;;;;;20.60;14.40;;;;;;;2.63;85.75;101633.52;86186;1292;87828;-63
2022/10/10 01:06:07;;;;;;;22.30;14.50;;;;;;;2.57;85.79;101631.42;86205;1291;95978;-64
2022/10/10 01:08:17;;;;;;;24.10;16.00;;;;;;;2.56;85.88;101637.25;86174;1291;79925;-65
2022/10/10 01:10:34;;;;;;;21.10;14.90;;;;;;;2.55;85.62;101639.05;86157;1290;82971;-63
2022/10/10 01:13:04;;;;;;;27.10;14.60;;;;;;;2.49;85.86;101642.02;86112;1291;97305;-63
2022/10/10 01:15:25;;;;;;;21.50;14.30;;;;;;;2.46;85.83;101643.45;86127;1292;89495;-63
2022/10/10 01:17:44;;;;;;;20.40;14.40;;;;;;;2.48;85.86;101644.73;86143;1289;93602;-63
2022/10/10 01:20:49;;;;;;;20.60;15.30;;;;;;;2.46;85.70;101642.41;86136;1292;80062;-64
2022/10/10 01:23:38;;;;;;;19.60;13.70;;;;;;;2.43;85.76;101642.75;85872;1297;80955;-63
2022/10/10 01:26:02;;;;;;;22.90;14.70;;;;;;;2.41;85.97;101641.11;86096;1297;99009;-62
2022/10/10 01:28:24;;;;;;;22.30;14.40;;;;;;;2.42;85.90;101639.64;86073;1297;87947;-62
2022/10/10 01:30:34;;;;;;;19.80;14.30;;;;;;;2.41;85.86;101639.31;86057;1289;93963;-63
2022/10/10 01:32:51;;;;;;;16.90;13.30;;;;;;;2.38;86.04;101641.14;86041;1289;81339;-62
2022/10/10 01:35:15;;;;;;;21.00;15.30;;;;;;;2.35;86.01;101642.57;86134;1289;82496;-63
2022/10/10 01:37:35;;;;;;;19.00;13.60;;;;;;;2.35;85.92;101646.33;86114;1289;99122;-62
2022/10/10 01:39:55;;;;;;;20.70;14.00;;;;;;;2.35;85.86;101650.39;86048;1295;88116;-64
2022/10/10 01:42:10;;;;;;;20.70;13.60;;;;;;;2.35;85.85;101649.35;86105;1291;95486;-65
2022/10/10 01:44:21;;;;;;;19.80;14.00;;;;;;;2.34;85.92;101648.20;86127;1289;81194;-65
2022/10/10 01:46:32;;;;;;;19.70;14.50;;;;;;;2.34;85.91;101646.73;86173;1291;82801;-63
2022/10/10 01:48:42;;;;;;;20.50;13.80;;;;;;;2.33;86.13;101641.87;86095;1286;97750;-63
2022/10/10 01:51:13;;;;;;;21.90;14.90;;;;;;;2.30;86.01;101639.60;86208;1294;89495;-62
2022/10/10 01:53:28;;;;;;;20.90;14.10;;;;;;;2.31;85.98;101638.95;86168;1295;94110;-63
2022/10/10 01:55:59;;;;;;;21.30;13.70;;;;;;;2.34;85.90;101637.35;86184;1295;78879;-63
2022/10/10 01:58:24;;;;;;;19.90;14.00;;;;;;;2.32;86.02;101631.42;86121;1291;82464;-62
2022/10/10 02:00:46;;;;;;;19.20;14.10;;;;;;;2.28;86.14;101633.68;86107;1294;98670;-64
2022/10/10 02:03:02;;;;;;;19.20;13.30;;;;;;;2.27;85.92;101627.67;86086;1297;88392;-64
2022/10/10 02:05:20;;;;;;;19.90;14.10;;;;;;;2.26;85.99;101629.70;86086;1297;95639;-65
2022/10/10 02:07:37;;;;;;;16.70;13.20;;;;;;;2.24;85.92;101627.34;86091;1292;80132;-64
2022/10/10 02:09:52;;;;;;;21.50;14.10;;;;;;;2.22;86.05;101632.31;86092;1291;83118;-63
2022/10/10 02:12:02;;;;;;;20.20;14.80;;;;;;;2.21;86.03;101631.16;86056;1290;100153;-64
2022/10/10 02:14:15;;;;;;;19.20;13.70;;;;;;;2.21;86.03;101635.59;86129;1289;87714;-63
2022/10/10 02:16:27;;;;;;;20.10;13.80;;;;;;;2.20;86.06;101631.71;86091;1291;95354;-62
2022/10/10 02:18:37;;;;;;;19.40;13.60;;;;;;;2.21;86.17;101633.13;86107;1294;80910;-63
2022/10/10 02:20:48;;;;;;;17.70;13.00;;;;;;;2.20;86.07;101633.74;86119;1297;82722;-63
2022/10/10 02:22:59;;;;;;;20.50;13.80;;;;;;;2.18;86.20;101631.36;86112;1282;99438;-62
2022/10/10 02:25:11;;;;;;;20.90;13.70;;;;;;;2.15;86.25;101634.94;86090;1294;88333;-65
2022/10/10 02:27:25;;;;;;;23.50;13.70;;;;;;;2.14;86.17;101638.02;86144;1289;93321;-65
2022/10/10 02:29:38;;;;;;;18.90;12.30;;;;;;;2.15;86.25;101633.71;86161;1291;81256;-65
2022/10/10 02:31:56;;;;;;;21.80;13.70;;;;;;;2.16;86.14;101633.09;86218;1282;81751;-65
2022/10/10 02:34:12;;;;;;;19.80;13.00;;;;;;;2.13;86.10;101628.34;86187;1291;99645;-66
2022/10/10 02:36:22;;;;;;;20.00;12.80;;;;;;;2.12;86.20;101624.65;86165;1291;89315;-63
2022/10/10 02:38:31;;;;;;;19.70;12.80;;;;;;;2.13;86.33;101617.30;86104;1292;93530;-63
2022/10/10 02:40:42;;;;;;;20.90;13.60;;;;;;;2.17;86.34;101612.23;86158;1292;80552;-63
2022/10/10 02:42:53;;;;;;;20.10;12.90;;;;;;;2.29;86.64;101604.98;86157;1289;82499;-62
2022/10/10 02:45:06;;;;;;;20.50;13.70;;;;;;;2.38;86.58;101603.79;86096;1292;99952;-63
2022/10/10 02:47:18;;;;;;;21.50;13.90;;;;;;;2.44;86.54;101603.36;86147;1292;88726;-63
2022/10/10 02:49:34;;;;;;;20.70;13.50;;;;;;;2.52;86.83;101611.05;86164;1295;94430;-63
2022/10/10 02:51:42;;;;;;;20.10;13.40;;;;;;;2.54;86.72;101609.80;86046;1291;78821;-62
2022/10/10 02:53:51;;;;;;;20.10;12.90;;;;;;;2.55;86.71;101605.08;86082;1291;81347;-62
2022/10/10 02:56:00;;;;;;;21.30;13.10;;;;;;;2.62;86.83;101606.73;86123;1295;99336;-63
2022/10/10 02:58:09;;;;;;;19.50;14.00;;;;;;;2.64;86.85;101607.29;86112;1291;88929;-64
2022/10/10 03:00:19;;;;;;;19.40;13.90;;;;;;;2.63;86.70;101607.00;86071;1291;94469;-63
2022/10/10 03:02:30;;;;;;;21.30;13.40;;;;;;;2.64;86.83;101603.41;86152;1291;81677;-64
2022/10/10 03:04:40;;;;;;;18.20;13.40;;;;;;;2.66;86.92;101602.73;86111;1297;82650;-62
2022/10/10 03:06:49;;;;;;;17.30;13.00;;;;;;;2.65;86.80;101602.61;86153;1291;99790;-63
2022/10/10 03:08:58;;;;;;;18.80;13.20;;;;;;;2.63;86.92;101603.08;86070;1289;88894;-62
2022/10/10 03:11:10;;;;;;;19.50;13.10;;;;;;;2.63;86.73;101605.04;86201;1293;94083;-64
2022/10/10 03:13:19;;;;;;;19.50;13.20;;;;;;;2.58;86.79;101607.36;86123;1291;81086;-65
2022/10/10 03:15:30;;;;;;;19.10;13.20;;;;;;;2.54;86.79;101613.19;86008;1294;84349;-64
2022/10/10 03:17:39;;;;;;;18.20;12.90;;;;;;;2.50;86.68;101610.27;86116;1291;100472;-64
2022/10/10 03:19:49;;;;;;;20.60;14.20;;;;;;;2.45;86.71;101609.70;86015;1299;90793;-64
2022/10/10 03:21:57;;;;;;;18.00;13.40;;;;;;;2.41;86.65;101608.21;86133;1295;95359;-65
2022/10/10 03:24:11;;;;;;;17.20;12.50;;;;;;;2.38;86.55;101603.77;86094;1291;79413;-64
2022/10/10 03:26:21;;;;;;;20.90;13.40;;;;;;;2.37;86.69;101610.84;86145;1291;82603;-62
2022/10/10 03:28:29;;;;;;;18.00;13.00;;;;;;;2.37;86.77;101608.30;86037;1291;97556;-62
2022/10/10 03:30:39;;;;;;;17.30;12.80;;;;;;;2.36;86.74;101609.79;86087;1297;88579;-63
2022/10/10 03:32:48;;;;;;;16.70;12.40;;;;;;;2.37;86.83;101608.48;86056;1291;95414;-63
2022/10/10 03:34:57;;;;;;;18.10;12.60;;;;;;;2.48;87.08;101603.84;85991;1291;79860;-64
2022/10/10 03:37:07;;;;;;;18.60;12.30;;;;;;;2.61;87.20;101606.77;85996;1291;83389;-64
2022/10/10 03:39:15;;;;;;;18.60;13.10;;;;;;;2.66;87.20;101606.78;85811;1296;100517;-64
2022/10/10 03:41:24;;;;;;;18.80;13.30;;;;;;;2.72;87.18;101603.52;85972;1285;89054;-62
2022/10/10 03:43:36;;;;;;;22.10;13.40;;;;;;;2.82;87.79;101599.38;86008;1297;95780;-62
2022/10/10 03:45:47;;;;;;;19.00;12.80;;;;;;;2.94;87.64;101604.02;85889;1294;82644;-65
2022/10/10 03:47:57;;;;;;;20.40;12.60;;;;;;;3.02;87.80;101607.91;85968;1284;83045;-65
2022/10/10 03:50:07;;;;;;;21.20;13.60;;;;;;;3.08;87.85;101609.23;85972;1291;99899;-63
2022/10/10 03:52:16;;;;;;;16.90;12.80;;;;;;;3.17;88.07;101606.84;85972;1291;88895;-63
2022/10/10 03:54:25;;;;;;;20.90;13.20;;;;;;;3.19;88.05;101606.14;85991;1298;95700;-63
2022/10/10 03:56:33;;;;;;;17.40;13.70;;;;;;;3.18;87.86;101600.52;86017;1298;78886;-64
2022/10/10 03:58:44;;;;;;;17.40;12.80;;;;;;;3.23;88.07;101601.75;85985;1298;82988;-65
2022/10/10 04:00:59;;;;;;;17.80;12.70;;;;;;;3.28;88.07;101600.95;85894;1294;98962;-63
2022/10/10 04:03:08;;;;;;;19.10;12.70;;;;;;;3.34;88.23;101599.96;85871;1299;90791;-63
2022/10/10 04:05:23;;;;;;;20.20;13.30;;;;;;;3.43;88.44;101598.80;86021;1298;93988;-64
2022/10/10 04:07:32;;;;;;;18.20;12.80;;;;;;;3.54;88.65;101602.25;85850;1293;82651;-65
2022/10/10 04:09:42;;;;;;;19.30;13.50;;;;;;;3.60;88.80;101599.98;86027;1298;81622;-65
2022/10/10 04:11:50;;;;;;;17.90;13.60;;;;;;;3.65;88.80;101598.04;86045;1297;101052;-63
2022/10/10 04:13:59;;;;;;;19.90;13.30;;;;;;;3.65;88.60;101591.80;86019;1297;87337;-63
2022/10/10 04:16:09;;;;;;;18.70;13.40;;;;;;;3.65;88.53;101594.79;86009;1290;94194;-63
2022/10/10 04:18:18;;;;;;;19.00;12.50;;;;;;;3.67;88.59;101593.80;86019;1297;81680;-63
2022/10/10 04:20:27;;;;;;;19.40;13.10;;;;;;;3.68;88.73;101595.80;85983;1297;83023;-64
2022/10/10 04:22:35;;;;;;;17.30;12.10;;;;;;;3.69;88.60;101595.38;85994;1291;97118;-65
2022/10/10 04:24:44;;;;;;;20.00;13.70;;;;;;;3.69;88.61;101595.93;86005;1297;88404;-64
2022/10/10 04:26:53;;;;;;;20.00;13.70;;;;;;;3.72;88.64;101594.83;85846;1294;95379;-65
2022/10/10 04:29:03;;;;;;;18.60;12.50;;;;;;;3.77;88.86;101599.39;86014;1291;81196;-64
2022/10/10 04:31:12;;;;;;;18.20;12.80;;;;;;;3.79;88.82;101602.82;86023;1291;80286;-61
2022/10/10 04:33:21;;;;;;;20.80;13.10;;;;;;;3.83;88.80;101602.19;85995;1297;99284;-63
2022/10/10 04:35:32;;;;;;;17.40;12.50;;;;;;;3.85;88.96;101599.91;86023;1290;89740;-64
2022/10/10 04:37:41;;;;;;;21.10;13.70;;;;;;;3.89;88.82;101600.05;86007;1291;92873;-64
2022/10/10 04:39:50;;;;;;;18.80;12.60;;;;;;;3.97;89.10;101599.31;86039;1291;81679;-63
2022/10/10 04:41:59;;;;;;;22.80;12.90;;;;;;;4.09;89.58;101601.55;86057;1290;81590;-63
2022/10/10 04:44:07;;;;;;;20.50;12.90;;;;;;;4.17;89.32;101595.56;86022;1291;99164;-62
2022/10/10 04:46:17;;;;;;;19.50;12.60;;;;;;;4.17;89.12;101591.77;86045;1291;87005;-64
2022/10/10 04:48:26;;;;;;;15.20;12.30;;;;;;;4.19;89.24;101592.58;86115;1298;95258;-62
2022/10/10 04:50:35;;;;;;;18.00;11.80;;;;;;;4.21;89.06;101589.95;86036;1291;81372;-62
2022/10/10 04:52:45;;;;;;;18.40;12.00;;;;;;;4.22;89.13;101587.73;85996;1297;82384;-63
2022/10/10 04:54:54;;;;;;;19.00;12.50;;;;;;;4.20;89.08;101587.33;86039;1291;98225;-62
2022/10/10 04:57:05;;;;;;;19.10;12.50;;;;;;;4.16;88.92;101588.15;86010;1291;88937;-62
2022/10/10 04:59:17;;;;;;;17.70;11.90;;;;;;;4.12;88.77;101586.65;85978;1292;93575;-63
2022/10/10 05:01:29;;;;;;;16.10;10.80;;;;;;;4.10;88.58;101590.45;86001;1291;82631;-64
2022/10/10 05:03:37;;;;;;;17.50;10.90;;;;;;;4.06;88.52;101589.66;85970;1290;83490;-64
2022/10/10 05:05:47;;;;;;;16.10;11.50;;;;;;;4.01;88.48;101591.79;86015;1298;98862;-62
2022/10/10 05:07:55;;;;;;;15.00;11.20;;;;;;;3.96;88.31;101591.31;86005;1284;87279;-63
2022/10/10 05:10:05;;;;;;;15.20;10.90;;;;;;;3.94;88.35;101592.72;85848;1294;96878;-62
2022/10/10 05:12:16;;;;;;;18.90;11.70;;;;;;;3.96;88.43;101595.39;85853;1293;81155;-62
2022/10/10 05:14:27;;;;;;;16.00;11.30;;;;;;;3.99;88.57;101600.20;85884;1300;83122;-62
2022/10/10 05:16:36;;;;;;;15.50;12.10;;;;;;;4.02;88.51;101605.66;85852;1295;99834;-64
2022/10/10 05:18:45;;;;;;;16.40;11.40;;;;;;;4.03;88.50;101605.26;85891;1299;87048;-64
2022/10/10 05:20:54;;;;;;;18.60;12.20;;;;;;;4.03;88.67;101606.64;85855;1293;94569;-62
2022/10/10 05:23:04;;;;;;;14.90;10.60;;;;;;;4.10;88.65;101603.20;85864;1293;82575;-63
2022/10/10 05:25:14;;;;;;;16.50;11.10;;;;;;;4.19;88.75;101606.50;85919;1300;80342;-63
2022/10/10 05:27:24;;;;;;;17.40;11.40;;;;;;;4.23;88.79;101599.96;85908;1297;98488;-63
2022/10/10 05:29:33;;;;;;;13.70;11.00;;;;;;;4.24;88.80;101595.95;85880;1300;86771;-63
2022/10/10 05:31:47;;;;;;;16.80;11.90;;;;;;;4.30;88.51;101600.66;86025;1300;94362;-62
2022/10/10 05:33:57;;;;;;;18.30;12.20;;;;;;;4.38;88.56;101595.02;85887;1293;81470;-62
2022/10/10 05:36:10;;;;;;;19.50;13.00;;;;;;;4.48;88.75;101584.73;85923;1300;81155;-62
2022/10/10 05:38:22;;;;;;;19.80;12.20;;;;;;;4.85;89.05;101582.32;85943;1293;99737;-63
2022/10/10 05:40:32;;;;;;;17.60;12.00;;;;;;;5.30;89.03;101580.85;85905;1292;89370;-61
2022/10/10 05:42:43;;;;;;;17.60;12.50;;;;;;;5.59;88.89;101581.25;85824;1293;95710;-62
2022/10/10 05:44:52;;;;;;;17.70;12.20;;;;;;;5.96;88.34;101581.55;85940;1300;81017;-64
2022/10/10 05:47:04;;;;;;;17.70;12.00;;;;;;;6.18;88.05;101577.50;85926;1300;80823;-64
2022/10/10 05:49:16;;;;;;;17.60;12.00;;;;;;;6.17;87.70;101578.09;85864;1300;102009;-63
2022/10/10 05:51:26;;;;;;;17.10;12.10;;;;;;;6.25;87.86;101579.58;85888;1298;88136;-63
2022/10/10 05:53:35;;;;;;;17.60;12.20;;;;;;;6.38;87.63;101582.18;85848;1292;94927;-63
2022/10/10 05:55:44;;;;;;;16.90;11.30;;;;;;;6.78;87.65;101579.36;85858;1293;80569;-62
2022/10/10 05:57:56;;;;;;;16.50;12.50;;;;;;;6.90;87.33;101577.52;85882;1287;82233;-61
2022/10/10 06:00:09;;;;;;;16.80;12.20;;;;;;;6.81;87.12;101575.36;85888;1293;97114;-63
2022/10/10 06:02:18;;;;;;;19.00;12.50;;;;;;;6.69;87.07;101569.78;85919;1298;88034;-63
2022/10/10 06:04:31;;;;;;;18.40;12.80;;;;;;;6.79;87.31;101570.88;85880;1293;95773;-64
2022/10/10 06:06:40;;;;;;;15.60;12.40;;;;;;;6.89;87.10;101572.59;85877;1293;81129;-62
2022/10/10 06:08:50;;;;;;;19.00;12.50;;;;;;;6.76;86.88;101572.23;85911;1293;82725;-63
2022/10/10 06:11:04;;;;;;;17.20;12.90;;;;;;;6.67;86.97;101572.99;86022;1298;100191;-64
2022/10/10 06:13:15;;;;;;;19.20;12.90;;;;;;;6.63;87.16;101574.05;85998;1290;86465;-63
2022/10/10 06:15:27;;;;;;;22.00;14.00;;;;;;;6.64;87.16;101572.05;85991;1292;91648;-64
2022/10/10 06:17:38;;;;;;;16.40;12.60;;;;;;;6.65;87.40;101567.98;86064;1298;80496;-63
2022/10/10 06:19:48;;;;;;;20.00;13.40;;;;;;;6.70;87.19;101566.98;86082;1291;80823;-63
2022/10/10 06:21:57;;;;;;;20.00;13.40;;;;;;;6.75;87.28;101566.33;85934;1298;99058;-62
2022/10/10 06:24:09;;;;;;;17.90;12.90;;;;;;;6.79;87.39;101572.05;86005;1298;87476;-62
2022/10/10 06:26:21;;;;;;;17.10;12.20;;;;;;;6.86;87.43;101575.94;85974;1298;94884;-63
2022/10/10 06:28:31;;;;;;;17.30;12.80;;;;;;;6.91;87.50;101570.84;85988;1291;80641;-63
2022/10/10 06:30:47;;;;;;;17.40;12.20;;;;;;;7.00;87.58;101568.38;85887;1293;82515;-62
2022/10/10 06:32:58;;;;;;;16.40;11.60;;;;;;;7.11;87.48;101567.75;85949;1291;99416;-62
2022/10/10 06:35:10;;;;;;;19.50;12.30;;;;;;;7.17;87.41;101565.38;86002;1295;88660;-64
2022/10/10 06:37:19;;;;;;;17.80;12.00;;;;;;;7.22;87.30;101560.61;86000;1290;92787;-64
2022/10/10 06:39:31;;;;;;;18.70;12.30;;;;;;;7.29;87.43;101559.65;85817;1299;84034;-65
2022/10/10 06:41:44;;;;;;;18.30;12.30;;;;;;;7.35;87.22;101564.16;86004;1298;83251;-64
2022/10/10 06:43:52;;;;;;;17.00;12.90;;;;;;;7.42;87.34;101565.78;86056;1290;98555;-59
2022/10/10 06:46:04;;;;;;;16.50;12.50;;;;;;;7.51;87.29;101566.15;85836;1293;88134;-60
2022/10/10 06:48:15;;;;;;;16.10;12.30;;;;;;;7.62;87.25;101561.36;85949;1292;95234;-59
2022/10/10 06:50:25;;;;;;;19.40;13.70;;;;;;;7.73;87.09;101566.64;86073;1292;82182;-60
2022/10/10 06:52:34;;;;;;;19.50;13.90;;;;;;;7.76;87.04;101566.35;85979;1291;81562;-62
2022/10/10 06:54:44;;;;;;;17.50;14.90;;;;;;;7.82;87.05;101563.63;85963;1298;99591;-63
2022/10/10 06:56:54;;;;;;;19.70;14.90;;;;;;;7.93;87.06;101558.02;86051;1298;85984;-62
2022/10/10 06:59:03;;;;;;;21.00;14.40;;;;;;;8.00;87.00;101554.46;85960;1297;94904;-61
2022/10/10 07:01:13;;;;;;;17.00;13.20;;;;;;;8.11;86.94;101558.39;86027;1291;79823;-62
2022/10/10 07:03:23;;;;;;;20.40;14.80;;;;;;;8.19;87.01;101556.36;86056;1298;81466;-62
2022/10/10 07:05:32;;;;;;;21.50;14.40;;;;;;;8.29;86.88;101554.38;86017;1290;99155;-64
2022/10/10 07:07:41;;;;;;;19.40;13.80;;;;;;;8.39;86.77;101550.90;85986;1290;87948;-64
2022/10/10 07:09:51;;;;;;;19.10;14.10;;;;;;;8.51;86.63;101551.54;85954;1285;94835;-62
2022/10/10 07:12:04;;;;;;;19.90;14.30;;;;;;;8.62;86.47;101553.48;85860;1293;80242;-63
2022/10/10 07:14:15;;;;;;;17.70;13.80;;;;;;;8.75;86.26;101558.85;85968;1297;82378;-63
2022/10/10 07:16:24;;;;;;;19.00;13.20;;;;;;;8.82;86.26;101554.34;85905;1285;99674;-64
2022/10/10 07:18:37;;;;;;;18.00;13.70;;;;;;;8.96;85.86;101551.25;85978;1291;87136;-65
2022/10/10 07:20:46;;;;;;;18.50;13.90;;;;;;;9.09;85.83;101547.94;85930;1298;93763;-63
2022/10/10 07:22:55;;;;;;;19.30;13.70;;;;;;;9.23;85.74;101548.45;86005;1297;79577;-63
2022/10/10 07:25:04;;;;;;;17.10;13.60;;;;;;;9.34;85.54;101548.05;85912;1297;82276;-62
2022/10/10 07:27:13;;;;;;;15.00;12.20;;;;;;;9.78;85.66;101545.51;85948;1298;97146;-62
2022/10/10 07:29:23;;;;;;;18.60;13.30;;;;;;;10.82;85.80;101543.60;85919;1291;88324;-63
2022/10/10 07:31:32;;;;;;;15.70;12.10;;;;;;;12.02;84.89;101548.14;85924;1298;95767;-65
2022/10/10 07:33:44;;;;;;;17.10;12.80;;;;;;;12.88;83.78;101542.17;85992;1290;79083;-65
2022/10/10 07:35:57;;;;;;;17.00;12.10;;;;;;;13.91;83.11;101535.13;86005;1298;82429;-63
2022/10/10 07:38:06;;;;;;;14.80;11.30;;;;;;;15.31;81.05;101534.39;85987;1291;98869;-62
2022/10/10 07:40:19;;;;;;;13.80;10.80;;;;;;;16.29;78.15;101537.59;86028;1291;87696;-63
2022/10/10 07:42:31;;;;;;;11.10;9.80;;;;;;;17.11;75.90;101537.92;86026;1291;94995;-63
2022/10/10 07:44:40;;;;;;;14.50;9.80;;;;;;;17.57;73.74;101536.30;85984;1298;77532;-63
2022/10/10 07:46:49;;;;;;;13.50;10.20;;;;;;;18.21;72.11;101529.28;86020;1291;81690;-63
2022/10/10 07:48:58;;;;;;;10.60;9.50;;;;;;;18.89;71.54;101528.32;85978;1291;98950;-63
2022/10/10 07:51:11;;;;;;;10.90;9.50;;;;;;;19.63;69.44;101532.27;86064;1291;88081;-62
2022/10/10 07:53:20;;;;;;;10.50;9.40;;;;;;;20.00;65.91;101528.02;86072;1292;95136;-63
2022/10/10 07:55:28;;;;;;;11.60;8.60;;;;;;;20.46;65.39;101521.13;86055;1292;79208;-63
2022/10/10 07:57:39;;;;;;;9.20;8.30;;;;;;;21.02;65.49;101519.50;85994;1291;81581;-64
2022/10/10 07:59:48;;;;;;;9.30;8.10;;;;;;;21.49;62.98;101518.61;86038;1290;97667;-64
2022/10/10 08:01:57;;;;;;;10.30;8.90;;;;;;;21.78;62.60;101518.31;85993;1291;88079;-64
2022/10/10 08:04:09;;;;;;;11.00;8.10;;;;;;;22.20;61.41;101516.56;86033;1292;94505;-64
2022/10/10 08:06:20;;;;;;;8.60;7.80;;;;;;;22.16;59.98;101517.19;85982;1298;78721;-63
2022/10/10 08:08:29;;;;;;;9.30;8.40;;;;;;;21.99;60.29;101520.64;85981;1291;82996;-62
2022/10/10 08:10:42;;;;;;;9.20;8.30;;;;;;;21.12;57.64;101520.95;85945;1297;100349;-64
2022/10/10 08:12:49;;;;;;;;;;;;;;;20.26;58.27;101522.88;86022;1298;88230;-65
2022/10/10 08:14:59;;;;;;;9.50;7.70;;;;;;;19.82;56.25;101522.05;85997;1291;93307;-65
2022/10/10 08:17:10;;;;;;;10.10;8.30;;;;;;;19.14;56.85;101519.67;86002;1298;80942;-64
2022/10/10 08:19:21;;;;;;;9.90;8.20;;;;;;;18.29;56.71;101519.39;85959;1292;81473;-64
2022/10/10 08:21:31;;;;;;;11.90;8.80;;;;;;;17.33;57.55;101521.94;86003;1292;99069;-64
2022/10/10 08:23:40;;;;;;;10.10;8.40;;;;;;;16.83;58.66;101517.64;85922;1298;88364;-64
2022/10/10 08:25:49;;;;;;;9.40;8.40;;;;;;;16.53;58.88;101520.45;86047;1290;94456;-65
2022/10/10 08:27:59;;;;;;;9.50;8.50;;;;;;;16.20;58.72;101519.36;85926;1299;80820;-65
2022/10/10 08:30:09;;;;;;;10.00;9.00;;;;;;;15.99;59.59;101513.88;86003;1291;79418;-64
2022/10/10 08:32:19;;;;;;;10.40;8.30;;;;;;;15.98;59.84;101508.72;86000;1290;99814;-63
2022/10/10 08:34:30;;;;;;;10.60;9.50;;;;;;;15.90;59.69;101512.37;86044;1298;87455;-62
2022/10/10 08:36:41;;;;;;;10.80;8.30;;;;;;;15.71;59.96;101512.55;86013;1295;95279;-63
2022/10/10 08:38:51;;;;;;;8.60;7.70;;;;;;;15.49;60.31;101508.30;85989;1294;79076;-63
2022/10/10 08:41:07;;;;;;;10.50;8.10;;;;;;;15.24;60.58;101504.50;86012;1293;82990;-63
2022/10/10 08:43:24;;;;;;;9.30;7.50;;;;;;;15.06;61.15;101496.45;85968;1291;99820;-65
2022/10/10 08:45:35;;;;;;;9.50;7.40;;;;;;;15.19;60.96;101496.61;86064;1297;88613;-67
2022/10/10 08:47:49;;;;;;;9.70;8.10;;;;;;;15.31;60.37;101493.23;85978;1298;94798;-67
2022/10/10 08:50:02;;;;;;;8.80;7.80;;;;;;;15.42;60.95;101488.23;85976;1291;80175;-65
2022/10/10 08:52:30;;;;;;;11.10;8.40;;;;;;;15.48;61.35;101483.29;85977;1290;82950;-66
2022/10/10 08:54:45;;;;;;;13.40;8.50;;;;;;;15.81;61.39;101485.55;85953;1293;99996;-67
2022/10/10 08:56:59;;;;;;;11.00;7.90;;;;;;;16.07;60.44;101483.08;86015;1291;86797;-65
2022/10/10 08:59:15;;;;;;;10.20;8.40;;;;;;;16.11;60.23;101482.31;85959;1297;94923;-66
2022/10/10 09:01:27;;;;;;;8.80;7.90;;;;;;;16.44;59.72;101474.89;85621;1300;77750;-66
2022/10/10 09:03:41;;;;;;;;;;;;;;;16.87;59.69;101468.36;85959;1295;81662;-66
2022/10/10 09:06:05;;;;;;;8.90;7.10;;;;;;;17.30;60.58;101466.21;85889;1301;97535;-63
2022/10/10 09:08:35;;;;;;;8.60;7.00;;;;;;;17.93;60.15;101457.70;85975;1297;86810;-64
2022/10/10 09:10:55;;;;;;;10.00;6.90;;;;;;;18.61;58.57;101461.45;85998;1298;95117;-63
2022/10/10 09:13:18;;;;;;;7.30;6.50;;;;;;;19.14;57.84;101456.88;86045;1298;80078;-65
2022/10/10 09:15:42;;;;;;;7.80;6.30;;;;;;;19.83;57.11;101448.05;85935;1299;80687;-65
2022/10/10 09:18:03;;;;;;;6.70;5.80;;;;;;;20.37;56.42;101442.60;86065;1297;98285;-67
2022/10/10 09:20:27;;;;;;;7.50;6.00;;;;;;;20.63;55.51;101441.27;86026;1297;88434;-64
2022/10/10 09:22:52;;;;;;;8.50;5.60;;;;;;;20.80;55.76;101438.91;85968;1291;95118;-64
2022/10/10 09:25:06;;;;;;;7.90;5.90;;;;;;;21.29;54.46;101434.70;86034;1297;81093;-64
2022/10/10 09:27:20;;;;;;;6.00;5.40;;;;;;;21.58;54.23;101436.62;86040;1294;82714;-64
2022/10/10 09:29:39;;;;;;;5.80;5.00;;;;;;;21.83;52.57;101437.69;86064;1291;99104;-64
2022/10/10 09:31:51;;;;;;;6.90;4.90;;;;;;;21.68;51.56;101432.59;85984;1290;86383;-68
2022/10/10 09:34:05;;;;;;;6.50;4.50;;;;;;;21.66;49.88;101432.70;85929;1298;95595;-66
2022/10/10 09:36:20;;;;;;;6.10;4.90;;;;;;;21.16;49.23;101435.52;85977;1291;80234;-66
2022/10/10 09:38:37;;;;;;;5.10;4.30;;;;;;;21.01;50.08;101430.63;85982;1297;81706;-66
2022/10/10 09:40:54;;;;;;;6.20;4.00;;;;;;;20.81;50.04;101433.29;85963;1291;99814;-63
2022/10/10 09:43:12;;;;;;;6.90;4.30;;;;;;;20.23;51.02;101434.12;85994;1297;88328;-64
2022/10/10 09:45:28;;;;;;;5.90;4.20;;;;;;;19.53;50.39;101431.29;85918;1298;93398;-64
2022/10/10 09:47:38;;;;;;;5.10;4.10;;;;;;;18.89;50.20;101426.59;85963;1297;80498;-65
2022/10/10 09:49:48;;;;;;;4.70;4.00;;;;;;;18.24;51.00;101429.13;85989;1295;82813;-64
2022/10/10 09:51:57;;;;;;;5.50;4.20;;;;;;;17.71;51.81;101428.15;86013;1292;98248;-65
2022/10/10 09:54:12;;;;;;;5.60;4.70;;;;;;;17.56;52.78;101429.63;85890;1294;89043;-64
2022/10/10 09:56:26;;;;;;;5.00;4.00;;;;;;;17.28;52.29;101426.34;86030;1291;93485;-63
2022/10/10 09:58:39;;;;;;;5.90;4.50;;;;;;;17.03;53.31;101427.81;86011;1297;81012;-64
2022/10/10 10:00:48;;;;;;;6.50;4.20;;;;;;;16.79;53.65;101425.86;86043;1298;83474;-63
2022/10/10 10:03:22;;;;;;;7.80;5.00;;;;;;;16.45;53.70;101423.63;86043;1297;100102;-63
2022/10/10 10:05:34;;;;;;;9.70;4.70;;;;;;;16.09;54.19;101423.23;86045;1299;88584;-66
2022/10/10 10:07:51;;;;;;;5.00;4.40;;;;;;;15.91;54.50;101430.08;86040;1291;93584;-65
2022/10/10 10:10:11;;;;;;;5.90;4.00;;;;;;;15.76;55.14;101436.69;85935;1294;80599;-65